createdAt,value
2019-05-21T00:01:25.859Z,90.10
2019-05-21T00:04:30.773Z,90.20
2019-05-21T00:07:36.038Z,90.20
2019-05-21T00:10:40.902Z,90.20
2019-05-21T00:13:45.939Z,90.20
2019-05-21T00:16:51.439Z,90.00
2019-05-21T00:19:56.605Z,89.80
2019-05-21T00:23:01.645Z,90.00
2019-05-21T00:26:06.918Z,90.00
2019-05-21T00:29:47.420Z,90.10
2019-05-21T00:33:28.026Z,90.10
2019-05-21T00:37:09.861Z,90.10
2019-05-21T00:40:50.215Z,90.10
2019-05-21T00:43:59.601Z,90.00
2019-05-21T00:47:05.833Z,89.90
2019-05-21T00:50:12.266Z,89.90
2019-05-21T00:53:17.428Z,89.60
2019-05-21T00:56:22.360Z,89.90
2019-05-21T00:59:27.484Z,90.40
2019-05-21T01:02:32.506Z,90.40
2019-05-21T01:05:37.520Z,90.30
2019-05-21T01:08:42.596Z,90.10
2019-05-21T01:11:47.631Z,90.10
2019-05-21T01:14:53.154Z,89.90
2019-05-21T01:17:58.278Z,89.80
2019-05-21T01:21:03.517Z,90.00
2019-05-21T01:24:08.330Z,90.10
2019-05-21T01:27:13.412Z,90.00
2019-05-21T01:30:18.704Z,89.80
2019-05-21T01:33:24.686Z,89.90
2019-05-21T01:36:29.829Z,89.80
2019-05-21T01:39:34.969Z,89.60
2019-05-21T01:42:39.907Z,89.80
2019-05-21T01:45:44.997Z,89.80
2019-05-21T01:48:50.041Z,90.00
2019-05-21T01:51:55.381Z,90.00
2019-05-21T01:55:00.669Z,89.90
2019-05-21T01:58:06.146Z,89.90
2019-05-21T02:01:12.042Z,89.80
2019-05-21T02:04:17.016Z,89.90
2019-05-21T02:07:22.062Z,89.80
2019-05-21T02:10:27.189Z,89.80
2019-05-21T02:13:32.170Z,90.00
2019-05-21T02:16:37.180Z,90.00
2019-05-21T02:19:42.212Z,90.40
2019-05-21T02:22:47.137Z,90.70
2019-05-21T02:25:52.296Z,90.80
2019-05-21T02:28:57.332Z,91.00
2019-05-21T02:32:02.574Z,91.00
2019-05-21T02:35:07.592Z,91.00
2019-05-21T02:38:13.101Z,91.00
2019-05-21T02:41:17.906Z,90.90
2019-05-21T02:44:22.633Z,91.10
2019-05-21T02:47:27.547Z,91.40
2019-05-21T02:50:32.822Z,91.40
2019-05-21T02:53:37.846Z,91.40
2019-05-21T02:56:43.094Z,91.30
2019-05-21T02:59:49.494Z,91.10
2019-05-21T03:02:54.428Z,90.80
2019-05-21T03:06:13.078Z,90.90
2019-05-21T03:09:07.012Z,90.80
2019-05-21T03:12:12.028Z,90.80
2019-05-21T03:15:17.106Z,90.60
2019-05-21T03:18:22.437Z,90.70
2019-05-21T03:21:27.493Z,91.10
2019-05-21T03:24:32.803Z,90.90
2019-05-21T03:27:39.040Z,91.00
2019-05-21T03:30:44.585Z,90.90
2019-05-21T03:33:49.499Z,90.80
2019-05-21T03:36:54.633Z,90.80
2019-05-21T03:39:59.686Z,90.90
2019-05-21T03:43:04.770Z,90.80
2019-05-21T03:46:09.877Z,90.90
2019-05-21T03:49:15.094Z,90.90
2019-05-21T03:52:20.070Z,91.00
2019-05-21T03:55:25.197Z,91.00
2019-05-21T03:58:30.034Z,90.90
2019-05-21T04:01:35.070Z,91.00
2019-05-21T04:04:40.594Z,90.70
2019-05-21T04:07:45.573Z,90.60
2019-05-21T04:10:50.390Z,90.50
2019-05-21T04:13:55.293Z,90.30
2019-05-21T04:17:06.636Z,90.30
2019-05-21T04:20:13.439Z,90.60
2019-05-21T04:23:18.453Z,90.20
2019-05-21T04:26:23.531Z,90.30
2019-05-21T04:29:28.628Z,90.20
2019-05-21T04:32:33.823Z,90.20
2019-05-21T04:35:38.813Z,89.70
2019-05-21T04:38:43.905Z,89.60
2019-05-21T04:41:48.884Z,88.80
2019-05-21T04:44:53.976Z,88.40
2019-05-21T04:47:58.949Z,88.00
2019-05-21T04:51:04.057Z,87.40
2019-05-21T04:54:09.054Z,87.10
2019-05-21T04:57:14.039Z,86.00
2019-05-21T05:00:19.031Z,85.60
2019-05-21T05:03:24.033Z,85.20
2019-05-21T05:06:29.250Z,85.50
2019-05-21T05:09:34.321Z,84.30
2019-05-21T05:12:39.490Z,83.80
2019-05-21T05:15:44.481Z,83.30
2019-05-21T05:18:49.751Z,82.50
2019-05-21T05:21:54.566Z,81.70
2019-05-21T05:24:59.564Z,80.40
2019-05-21T05:28:04.449Z,79.20
2019-05-21T05:31:10.105Z,78.00
2019-05-21T05:34:15.190Z,76.70
2019-05-21T05:37:20.439Z,74.90
2019-05-21T05:40:25.427Z,73.30
2019-05-21T05:43:30.705Z,71.60
2019-05-21T05:46:35.597Z,70.60
2019-05-21T05:49:44.524Z,69.40
2019-05-21T05:52:49.523Z,67.90
2019-05-21T05:55:54.648Z,67.50
2019-05-21T05:58:59.643Z,67.10
2019-05-21T06:02:04.673Z,66.40
2019-05-21T06:05:10.114Z,66.70
2019-05-21T06:08:15.108Z,65.30
2019-05-21T06:11:20.199Z,64.50
2019-05-21T06:14:25.163Z,64.10
2019-05-21T06:17:30.011Z,63.30
2019-05-21T06:20:34.949Z,62.80
2019-05-21T06:23:39.960Z,62.90
2019-05-21T06:26:44.901Z,63.20
2019-05-21T06:29:49.756Z,64.10
2019-05-21T06:32:54.781Z,65.30
2019-05-21T06:35:59.849Z,66.50
2019-05-21T06:39:06.501Z,67.00
2019-05-21T06:42:11.377Z,68.40
2019-05-21T06:45:16.859Z,69.40
2019-05-21T06:48:21.814Z,70.60
2019-05-21T06:51:26.748Z,70.70
2019-05-21T06:54:31.823Z,70.70
2019-05-21T06:57:36.714Z,71.70
2019-05-21T07:00:41.662Z,71.30
2019-05-21T07:03:46.841Z,71.60
2019-05-21T07:06:52.053Z,71.30
2019-05-21T07:09:57.004Z,70.90
2019-05-21T07:13:02.017Z,71.70
2019-05-21T07:16:06.965Z,72.00
2019-05-21T07:19:11.927Z,72.10
2019-05-21T07:22:16.981Z,70.50
2019-05-21T07:25:21.896Z,69.50
2019-05-21T07:28:27.119Z,70.30
2019-05-21T07:31:32.394Z,70.30
2019-05-21T07:34:37.391Z,70.70
2019-05-21T07:37:42.404Z,70.20
2019-05-21T07:40:47.477Z,68.60
2019-05-21T07:43:52.730Z,69.90
2019-05-21T07:46:57.757Z,69.60
2019-05-21T07:50:03.154Z,67.80
2019-05-21T07:53:08.178Z,65.20
2019-05-21T07:56:13.238Z,64.10
2019-05-21T07:59:18.238Z,62.20
2019-05-21T08:02:23.130Z,61.50
2019-05-21T08:05:28.087Z,62.00
2019-05-21T08:08:33.238Z,60.30
2019-05-21T08:11:38.272Z,61.00
2019-05-21T08:14:43.277Z,59.10
2019-05-21T08:17:48.158Z,59.10
2019-05-21T08:20:53.252Z,59.00
2019-05-21T08:23:58.424Z,59.10
2019-05-21T08:27:03.467Z,58.40
2019-05-21T08:30:08.619Z,58.90
2019-05-21T08:33:13.761Z,58.20
2019-05-21T08:36:18.718Z,58.50
2019-05-21T08:39:28.669Z,59.60
2019-05-21T08:42:30.817Z,59.90
2019-05-21T08:45:35.778Z,60.90
2019-05-21T08:48:40.757Z,62.50
2019-05-21T08:51:45.769Z,63.30
2019-05-21T08:54:51.253Z,66.10
2019-05-21T08:58:06.292Z,67.40
2019-05-21T09:01:03.302Z,67.60
2019-05-21T09:04:08.208Z,68.00
2019-05-21T09:07:13.426Z,68.10
2019-05-21T09:10:19.093Z,67.70
2019-05-21T09:13:24.062Z,67.90
2019-05-21T09:16:29.066Z,67.90
2019-05-21T09:19:36.414Z,67.40
2019-05-21T09:22:41.087Z,67.10
2019-05-21T09:25:49.451Z,66.50
2019-05-21T09:28:53.254Z,66.90
2019-05-21T09:31:58.220Z,67.60
2019-05-21T09:35:14.510Z,67.90
2019-05-21T09:38:19.399Z,68.30
2019-05-21T09:41:24.597Z,68.30
2019-05-21T09:44:29.532Z,68.10
2019-05-21T09:47:34.525Z,68.80
2019-05-21T09:50:39.624Z,68.20
2019-05-21T09:53:44.691Z,68.10
2019-05-21T09:56:49.658Z,67.90
2019-05-21T10:00:00.587Z,67.90
2019-05-21T10:03:07.545Z,67.80
2019-05-21T10:06:12.467Z,67.30
2019-05-21T10:09:19.474Z,67.30
2019-05-21T10:12:24.487Z,67.80
2019-05-21T10:15:29.262Z,67.00
2019-05-21T10:18:34.714Z,66.30
2019-05-21T10:21:40.059Z,65.10
2019-05-21T10:24:45.098Z,63.90
2019-05-21T10:27:49.923Z,62.70
2019-05-21T10:30:54.901Z,61.80
2019-05-21T10:33:59.931Z,60.80
2019-05-21T10:37:05.117Z,60.70
2019-05-21T10:40:11.074Z,61.00
2019-05-21T10:43:16.132Z,61.30
2019-05-21T10:46:21.069Z,61.50
2019-05-21T10:49:26.049Z,61.80
2019-05-21T10:52:31.063Z,62.10
2019-05-21T10:55:35.982Z,62.60
2019-05-21T10:58:41.148Z,62.10
2019-05-21T11:02:15.110Z,62.20
2019-05-21T11:05:41.837Z,62.10
2019-05-21T11:08:46.906Z,62.20
2019-05-21T11:11:52.514Z,61.80
2019-05-21T11:14:57.645Z,62.20
2019-05-21T11:18:10.445Z,62.20
2019-05-21T11:21:09.231Z,62.70
2019-05-21T11:24:14.477Z,63.20
2019-05-21T11:27:19.536Z,62.50
2019-05-21T11:30:24.483Z,62.10
2019-05-21T11:33:29.636Z,61.90
2019-05-21T11:36:34.771Z,62.10
2019-05-21T11:39:39.980Z,62.90
2019-05-21T11:42:44.942Z,63.50
2019-05-21T11:45:49.889Z,63.70
2019-05-21T11:48:54.810Z,63.50
2019-05-21T11:51:59.951Z,63.40
2019-05-21T11:55:05.109Z,63.30
2019-05-21T11:58:10.234Z,63.30
2019-05-21T12:01:15.281Z,63.30
2019-05-21T12:04:20.238Z,63.30
2019-05-21T12:07:25.253Z,62.60
2019-05-21T12:10:30.248Z,62.70
2019-05-21T12:13:35.522Z,61.00
2019-05-21T12:16:40.414Z,60.00
2019-05-21T12:19:47.154Z,60.00
2019-05-21T12:22:52.384Z,59.60
2019-05-21T12:25:58.368Z,59.70
2019-05-21T12:29:03.184Z,59.80
2019-05-21T12:32:08.269Z,59.80
2019-05-21T12:35:13.765Z,60.60
2019-05-21T12:38:18.929Z,61.30
2019-05-21T12:41:23.978Z,62.50
2019-05-21T12:44:29.105Z,61.10
2019-05-21T12:47:34.704Z,61.40
2019-05-21T12:50:39.779Z,61.60
2019-05-21T12:53:45.029Z,61.10
2019-05-21T12:56:50.033Z,60.60
2019-05-21T12:59:55.065Z,59.90
2019-05-21T13:02:59.949Z,60.10
2019-05-21T13:06:05.392Z,60.40
2019-05-21T13:09:10.281Z,61.60
2019-05-21T13:12:15.233Z,62.80
2019-05-21T13:15:20.284Z,63.10
2019-05-21T13:18:25.292Z,62.20
2019-05-21T13:21:30.471Z,61.60
2019-05-21T13:24:35.362Z,61.10
2019-05-21T13:27:40.875Z,58.80
2019-05-21T13:30:46.130Z,59.70
2019-05-21T13:33:51.525Z,60.40
2019-05-21T13:36:56.670Z,60.50
2019-05-21T13:40:21.118Z,61.90
2019-05-21T13:43:26.149Z,62.90
2019-05-21T13:46:31.144Z,62.50
2019-05-21T13:49:36.182Z,62.00
2019-05-21T13:52:41.292Z,62.10
2019-05-21T13:55:46.399Z,62.80
2019-05-21T13:58:51.471Z,63.50
2019-05-21T14:01:57.076Z,64.10
2019-05-21T14:05:02.572Z,64.40
2019-05-21T14:08:07.917Z,64.90
2019-05-21T14:11:13.324Z,64.90
2019-05-21T14:14:18.518Z,64.60
2019-05-21T14:17:23.559Z,64.50
2019-05-21T14:20:28.498Z,65.10
2019-05-21T14:23:33.605Z,65.70
2019-05-21T14:26:38.632Z,64.70
2019-05-21T14:29:43.872Z,64.60
2019-05-21T14:32:49.251Z,64.80
2019-05-21T14:35:54.560Z,63.20
2019-05-21T14:38:59.553Z,63.60
2019-05-21T14:42:04.678Z,64.30
2019-05-21T14:45:10.355Z,64.00
2019-05-21T14:48:15.440Z,64.60
2019-05-21T14:51:20.700Z,65.00
2019-05-21T14:54:27.151Z,63.90
2019-05-21T14:57:32.444Z,63.10
2019-05-21T15:00:37.958Z,64.60
2019-05-21T15:03:42.856Z,63.80
2019-05-21T15:06:47.826Z,65.20
2019-05-21T15:09:53.667Z,64.70
2019-05-21T15:12:59.127Z,64.90
2019-05-21T15:16:05.443Z,64.60
2019-05-21T15:19:11.525Z,64.50
2019-05-21T15:22:16.585Z,64.10
2019-05-21T15:25:21.576Z,64.20
2019-05-21T15:28:26.578Z,64.70
2019-05-21T15:31:31.758Z,64.90
2019-05-21T15:34:36.868Z,65.10
2019-05-21T15:37:44.993Z,66.30
2019-05-21T15:41:06.594Z,66.70
2019-05-21T15:43:55.282Z,66.10
2019-05-21T15:47:00.253Z,65.80
2019-05-21T15:50:05.861Z,65.90
2019-05-21T15:53:10.936Z,66.10
2019-05-21T15:56:16.046Z,66.10
2019-05-21T15:59:21.035Z,66.00
2019-05-21T16:02:26.337Z,65.60
2019-05-21T16:05:31.511Z,65.20
2019-05-21T16:08:36.478Z,65.30
2019-05-21T16:11:41.513Z,64.90
2019-05-21T16:14:46.576Z,63.90
2019-05-21T16:17:51.825Z,64.10
2019-05-21T16:20:56.940Z,64.70
2019-05-21T16:24:02.126Z,64.90
2019-05-21T16:27:07.217Z,65.30
2019-05-21T16:30:12.457Z,65.50
2019-05-21T16:33:17.821Z,65.00
2019-05-21T16:36:22.921Z,65.30
2019-05-21T16:39:30.873Z,65.10
2019-05-21T16:42:35.902Z,65.50
2019-05-21T16:45:41.037Z,66.00
2019-05-21T16:48:46.190Z,66.40
2019-05-21T16:51:51.467Z,65.90
2019-05-21T16:54:56.481Z,66.50
2019-05-21T16:58:01.499Z,66.10
2019-05-21T17:01:07.945Z,66.40
2019-05-21T17:04:12.907Z,66.90
2019-05-21T17:07:17.753Z,67.20
2019-05-21T17:10:23.066Z,66.50
2019-05-21T17:13:28.381Z,67.10
2019-05-21T17:16:33.415Z,67.30
2019-05-21T17:19:38.571Z,66.30
2019-05-21T17:22:43.605Z,67.00
2019-05-21T17:25:48.610Z,67.60
2019-05-21T17:28:53.546Z,67.50
2019-05-21T17:31:58.620Z,67.30
2019-05-21T17:35:03.794Z,67.50
2019-05-21T17:38:09.089Z,67.50
2019-05-21T17:41:14.659Z,67.60
2019-05-21T17:44:19.932Z,67.50
2019-05-21T17:47:25.324Z,66.80
2019-05-21T17:50:30.653Z,66.80
2019-05-21T17:53:35.758Z,66.70
2019-05-21T17:56:40.708Z,67.20
2019-05-21T17:59:46.491Z,67.50
2019-05-21T18:02:52.082Z,81.30
2019-05-21T18:05:58.215Z,70.70
2019-05-21T18:09:05.396Z,69.90
2019-05-21T18:12:12.460Z,70.00
2019-05-21T18:15:18.021Z,72.40
2019-05-21T18:18:24.170Z,73.60
2019-05-21T18:21:30.202Z,74.10
2019-05-21T18:24:36.160Z,74.60
2019-05-21T18:27:41.702Z,75.00
2019-05-21T18:30:47.110Z,75.90
2019-05-21T18:33:52.250Z,76.00
2019-05-21T18:36:57.444Z,76.30
2019-05-21T18:40:02.459Z,76.80
2019-05-21T18:43:07.624Z,77.00
2019-05-21T18:46:12.824Z,77.10
2019-05-21T18:49:18.071Z,77.50
2019-05-21T18:52:23.425Z,77.90
2019-05-21T18:55:28.634Z,78.20
2019-05-21T18:58:33.852Z,78.60
2019-05-21T19:01:38.756Z,79.10
2019-05-21T19:04:44.000Z,78.80
2019-05-21T19:07:49.081Z,79.30
2019-05-21T19:10:54.046Z,79.60
2019-05-21T19:13:59.645Z,80.50
2019-05-21T19:17:04.901Z,79.80
2019-05-21T19:20:12.534Z,79.90
2019-05-21T19:23:17.600Z,80.00
2019-05-21T19:26:23.437Z,80.20
2019-05-21T19:29:28.652Z,80.20
2019-05-21T19:32:33.963Z,80.50
2019-05-21T19:35:39.432Z,81.00
2019-05-21T19:38:44.948Z,81.30
2019-05-21T19:41:50.446Z,81.80
2019-05-21T19:44:55.753Z,82.00
2019-05-21T19:48:00.978Z,82.50
2019-05-21T19:51:06.427Z,83.10
2019-05-21T19:54:12.673Z,83.00
2019-05-21T19:57:19.951Z,83.70
2019-05-21T20:00:26.493Z,84.20
2019-05-21T20:03:31.721Z,84.40
2019-05-21T20:06:37.523Z,84.40
2019-05-21T20:09:44.033Z,84.40
2019-05-21T20:12:49.415Z,84.70
2019-05-21T20:15:54.636Z,85.00
2019-05-21T20:18:59.816Z,85.30
2019-05-21T20:22:06.875Z,85.60
2019-05-21T20:25:12.761Z,85.80
2019-05-21T20:28:18.824Z,85.90
2019-05-21T20:31:23.916Z,86.40
2019-05-21T20:34:29.791Z,86.70
2019-05-21T20:37:36.335Z,86.90
2019-05-21T20:40:41.692Z,87.10
2019-05-21T20:43:58.190Z,87.40
2019-05-21T20:46:55.365Z,87.60
2019-05-21T20:50:00.621Z,87.80
2019-05-21T20:53:08.812Z,88.20
2019-05-21T20:56:13.878Z,88.50
2019-05-21T20:59:19.149Z,88.80
2019-05-21T21:02:23.988Z,89.10
2019-05-21T21:05:29.027Z,89.20
2019-05-21T21:08:36.653Z,89.50
2019-05-21T21:11:42.583Z,89.80
2019-05-21T21:14:48.730Z,90.10
2019-05-21T21:17:53.740Z,90.00
2019-05-21T21:20:59.141Z,90.00
2019-05-21T21:24:04.520Z,90.10
2019-05-21T21:27:10.501Z,90.30
2019-05-21T21:30:16.018Z,90.30
2019-05-21T21:33:22.094Z,90.20
2019-05-21T21:36:27.060Z,90.20
2019-05-21T21:39:32.297Z,90.10
2019-05-21T21:42:37.442Z,90.10
2019-05-21T21:45:42.957Z,90.00
2019-05-21T21:48:48.145Z,90.00
2019-05-21T21:51:53.409Z,90.00
2019-05-21T21:54:58.546Z,90.10
2019-05-21T21:58:04.041Z,90.00
2019-05-21T22:01:32.719Z,90.00
2019-05-21T22:04:37.935Z,89.90
2019-05-21T22:07:43.343Z,90.00
2019-05-21T22:10:49.121Z,90.00
2019-05-21T22:13:54.324Z,90.00
2019-05-21T22:16:59.627Z,90.10
2019-05-21T22:20:06.129Z,90.10
2019-05-21T22:23:12.812Z,90.20
2019-05-21T22:26:18.031Z,90.60
2019-05-21T22:29:23.349Z,90.30
2019-05-21T22:32:29.020Z,90.30
2019-05-21T22:35:34.284Z,90.20
2019-05-21T22:38:39.185Z,90.20
2019-05-21T22:41:44.324Z,90.30
2019-05-21T22:44:49.502Z,90.30
2019-05-21T22:47:54.658Z,90.40
2019-05-21T22:50:59.502Z,90.50
2019-05-21T22:54:04.590Z,90.50
2019-05-21T22:57:09.878Z,90.50
2019-05-21T23:00:15.125Z,90.50
2019-05-21T23:03:20.045Z,90.50
2019-05-21T23:06:25.494Z,90.50
2019-05-21T23:09:30.408Z,90.50
2019-05-21T23:12:35.946Z,90.50
2019-05-21T23:15:41.462Z,90.50
2019-05-21T23:18:47.901Z,90.60
2019-05-21T23:21:53.549Z,91.00
2019-05-21T23:24:58.977Z,91.00
2019-05-21T23:28:05.284Z,91.00
2019-05-21T23:31:12.047Z,91.00
2019-05-21T23:34:18.994Z,91.00
2019-05-21T23:37:25.460Z,91.00
2019-05-21T23:40:31.452Z,91.00
2019-05-21T23:43:36.646Z,91.10
2019-05-21T23:46:41.841Z,90.90
2019-05-21T23:49:47.154Z,90.90
2019-05-21T23:52:52.692Z,91.10
2019-05-21T23:55:57.913Z,91.20
2019-05-21T23:59:03.615Z,91.20
